sensor_id;sensor_type;location;lat;lon;timestamp;temperature;humidity
46816;DHT22;32787;53.316;8.670;2022-12-07T00:01:14;3.70;93.50
46816;DHT22;32787;53.316;8.670;2022-12-07T00:04:02;3.70;93.20
46816;DHT22;32787;53.316;8.670;2022-12-07T00:06:52;3.80;93.20
46816;DHT22;32787;53.316;8.670;2022-12-07T00:09:38;3.80;93.10
46816;DHT22;32787;53.316;8.670;2022-12-07T00:12:24;3.90;93.20
46816;DHT22;32787;53.316;8.670;2022-12-07T00:15:10;3.90;93.10
46816;DHT22;32787;53.316;8.670;2022-12-07T00:17:56;3.90;93.10
46816;DHT22;32787;53.316;8.670;2022-12-07T00:20:42;3.80;93.20
46816;DHT22;32787;53.316;8.670;2022-12-07T00:23:28;3.60;92.90
46816;DHT22;32787;53.316;8.670;2022-12-07T00:26:16;3.50;92.60
46816;DHT22;32787;53.316;8.670;2022-12-07T00:29:05;3.50;92.70
46816;DHT22;32787;53.316;8.670;2022-12-07T00:31:51;3.30;92.80
46816;DHT22;32787;53.316;8.670;2022-12-07T00:34:37;3.20;92.90
46816;DHT22;32787;53.316;8.670;2022-12-07T00:37:23;3.30;93.10
46816;DHT22;32787;53.316;8.670;2022-12-07T00:40:09;3.30;93.20
46816;DHT22;32787;53.316;8.670;2022-12-07T00:42:55;3.40;93.20
46816;DHT22;32787;53.316;8.670;2022-12-07T00:45:41;3.40;92.90
46816;DHT22;32787;53.316;8.670;2022-12-07T00:48:27;3.40;92.90
46816;DHT22;32787;53.316;8.670;2022-12-07T00:51:14;3.40;92.80
46816;DHT22;32787;53.316;8.670;2022-12-07T00:54:01;3.40;93.00
46816;DHT22;32787;53.316;8.670;2022-12-07T00:56:46;3.50;93.00
46816;DHT22;32787;53.316;8.670;2022-12-07T00:59:32;3.40;92.90
46816;DHT22;32787;53.316;8.670;2022-12-07T01:02:18;3.50;92.90
46816;DHT22;32787;53.316;8.670;2022-12-07T01:05:04;3.50;92.90
46816;DHT22;32787;53.316;8.670;2022-12-07T01:07:51;3.40;92.70
46816;DHT22;32787;53.316;8.670;2022-12-07T01:10:36;3.40;92.60
46816;DHT22;32787;53.316;8.670;2022-12-07T01:13:22;3.40;92.60
46816;DHT22;32787;53.316;8.670;2022-12-07T01:16:12;3.40;92.60
46816;DHT22;32787;53.316;8.670;2022-12-07T01:18:59;3.50;92.60
46816;DHT22;32787;53.316;8.670;2022-12-07T01:21:46;3.30;92.30
46816;DHT22;32787;53.316;8.670;2022-12-07T01:24:32;3.30;92.50
46816;DHT22;32787;53.316;8.670;2022-12-07T01:27:18;3.30;92.50
46816;DHT22;32787;53.316;8.670;2022-12-07T01:30:06;3.20;92.70
46816;DHT22;32787;53.316;8.670;2022-12-07T01:32:52;3.00;92.70
46816;DHT22;32787;53.316;8.670;2022-12-07T01:35:38;2.90;92.90
46816;DHT22;32787;53.316;8.670;2022-12-07T01:38:24;2.90;93.00
46816;DHT22;32787;53.316;8.670;2022-12-07T01:41:10;3.00;92.90
46816;DHT22;32787;53.316;8.670;2022-12-07T01:44:27;3.00;92.60
46816;DHT22;32787;53.316;8.670;2022-12-07T01:47:15;2.90;92.60
46816;DHT22;32787;53.316;8.670;2022-12-07T01:50:02;2.70;92.60
46816;DHT22;32787;53.316;8.670;2022-12-07T01:52:50;2.60;92.70
46816;DHT22;32787;53.316;8.670;2022-12-07T01:55:40;2.60;93.20
46816;DHT22;32787;53.316;8.670;2022-12-07T01:58:26;2.80;93.40
46816;DHT22;32787;53.316;8.670;2022-12-07T02:01:13;2.90;93.50
46816;DHT22;32787;53.316;8.670;2022-12-07T02:03:59;2.90;93.20
46816;DHT22;32787;53.316;8.670;2022-12-07T02:06:46;2.80;93.10
46816;DHT22;32787;53.316;8.670;2022-12-07T02:09:32;2.90;93.20
46816;DHT22;32787;53.316;8.670;2022-12-07T02:12:19;3.00;93.10
46816;DHT22;32787;53.316;8.670;2022-12-07T02:15:06;2.90;92.70
46816;DHT22;32787;53.316;8.670;2022-12-07T02:21:11;2.60;92.80
46816;DHT22;32787;53.316;8.670;2022-12-07T02:27:13;2.60;93.10
46816;DHT22;32787;53.316;8.670;2022-12-07T02:30:13;2.70;92.90
46816;DHT22;32787;53.316;8.670;2022-12-07T02:33:14;2.90;93.00
46816;DHT22;32787;53.316;8.670;2022-12-07T02:39:02;2.80;92.40
46816;DHT22;32787;53.316;8.670;2022-12-07T02:41:58;2.80;92.30
46816;DHT22;32787;53.316;8.670;2022-12-07T02:44:47;2.90;92.30
46816;DHT22;32787;53.316;8.670;2022-12-07T02:47:34;3.00;92.40
46816;DHT22;32787;53.316;8.670;2022-12-07T02:50:22;3.10;92.30
46816;DHT22;32787;53.316;8.670;2022-12-07T02:53:28;3.20;92.20
46816;DHT22;32787;53.316;8.670;2022-12-07T02:56:35;3.10;92.20
46816;DHT22;32787;53.316;8.670;2022-12-07T03:08:35;3.20;92.40
46816;DHT22;32787;53.316;8.670;2022-12-07T03:11:33;3.20;92.30
46816;DHT22;32787;53.316;8.670;2022-12-07T03:14:30;3.20;92.40
46816;DHT22;32787;53.316;8.670;2022-12-07T03:17:26;3.30;92.40
46816;DHT22;32787;53.316;8.670;2022-12-07T03:20:16;3.30;92.70
46816;DHT22;32787;53.316;8.670;2022-12-07T03:23:04;3.50;92.70
46816;DHT22;32787;53.316;8.670;2022-12-07T03:25:57;3.60;92.50
46816;DHT22;32787;53.316;8.670;2022-12-07T03:28:50;3.50;92.10
46816;DHT22;32787;53.316;8.670;2022-12-07T03:31:47;3.40;92.10
46816;DHT22;32787;53.316;8.670;2022-12-07T03:34:49;3.30;92.10
46816;DHT22;32787;53.316;8.670;2022-12-07T03:37:43;3.00;92.30
46816;DHT22;32787;53.316;8.670;2022-12-07T03:40:39;2.90;92.40
46816;DHT22;32787;53.316;8.670;2022-12-07T03:43:31;3.20;92.80
46816;DHT22;32787;53.316;8.670;2022-12-07T03:49:08;2.80;92.50
46816;DHT22;32787;53.316;8.670;2022-12-07T03:52:01;3.00;93.00
46816;DHT22;32787;53.316;8.670;2022-12-07T03:54:56;3.10;92.80
46816;DHT22;32787;53.316;8.670;2022-12-07T03:57:45;2.90;92.70
46816;DHT22;32787;53.316;8.670;2022-12-07T04:00:33;3.00;93.00
46816;DHT22;32787;53.316;8.670;2022-12-07T04:03:19;3.00;93.00
46816;DHT22;32787;53.316;8.670;2022-12-07T04:06:05;3.20;92.90
46816;DHT22;32787;53.316;8.670;2022-12-07T04:08:51;3.30;92.80
46816;DHT22;32787;53.316;8.670;2022-12-07T04:11:37;3.40;92.80
46816;DHT22;32787;53.316;8.670;2022-12-07T04:14:23;3.40;92.60
46816;DHT22;32787;53.316;8.670;2022-12-07T04:17:09;3.40;92.50
46816;DHT22;32787;53.316;8.670;2022-12-07T04:19:55;3.40;92.50
46816;DHT22;32787;53.316;8.670;2022-12-07T04:22:41;3.40;92.30
46816;DHT22;32787;53.316;8.670;2022-12-07T04:25:27;3.40;92.50
46816;DHT22;32787;53.316;8.670;2022-12-07T04:28:12;3.50;92.60
46816;DHT22;32787;53.316;8.670;2022-12-07T04:30:58;3.60;92.50
46816;DHT22;32787;53.316;8.670;2022-12-07T04:33:44;3.60;92.10
46816;DHT22;32787;53.316;8.670;2022-12-07T04:36:31;3.60;92.00
46816;DHT22;32787;53.316;8.670;2022-12-07T04:39:25;3.70;91.90
46816;DHT22;32787;53.316;8.670;2022-12-07T04:42:12;3.60;91.90
46816;DHT22;32787;53.316;8.670;2022-12-07T04:44:58;3.60;91.90
46816;DHT22;32787;53.316;8.670;2022-12-07T04:47:44;3.40;91.80
46816;DHT22;32787;53.316;8.670;2022-12-07T04:50:30;3.30;91.90
46816;DHT22;32787;53.316;8.670;2022-12-07T04:53:16;3.30;92.10
46816;DHT22;32787;53.316;8.670;2022-12-07T04:56:02;3.30;92.10
46816;DHT22;32787;53.316;8.670;2022-12-07T04:58:48;3.30;92.20
46816;DHT22;32787;53.316;8.670;2022-12-07T05:01:34;3.20;91.90
46816;DHT22;32787;53.316;8.670;2022-12-07T05:04:20;3.20;92.10
46816;DHT22;32787;53.316;8.670;2022-12-07T05:07:06;3.10;92.00
46816;DHT22;32787;53.316;8.670;2022-12-07T05:09:52;3.10;92.30
46816;DHT22;32787;53.316;8.670;2022-12-07T05:12:38;3.10;92.30
46816;DHT22;32787;53.316;8.670;2022-12-07T05:15:24;3.10;92.30
46816;DHT22;32787;53.316;8.670;2022-12-07T05:18:10;3.10;92.30
46816;DHT22;32787;53.316;8.670;2022-12-07T05:20:58;3.20;92.40
46816;DHT22;32787;53.316;8.670;2022-12-07T05:23:44;3.30;92.30
46816;DHT22;32787;53.316;8.670;2022-12-07T05:26:30;3.30;92.10
46816;DHT22;32787;53.316;8.670;2022-12-07T05:29:17;3.30;92.00
46816;DHT22;32787;53.316;8.670;2022-12-07T05:32:03;3.20;91.90
46816;DHT22;32787;53.316;8.670;2022-12-07T05:34:49;3.00;91.80
46816;DHT22;32787;53.316;8.670;2022-12-07T05:37:34;3.00;92.10
46816;DHT22;32787;53.316;8.670;2022-12-07T05:40:20;3.10;92.10
46816;DHT22;32787;53.316;8.670;2022-12-07T05:43:07;3.00;92.30
46816;DHT22;32787;53.316;8.670;2022-12-07T05:45:52;3.00;92.30
46816;DHT22;32787;53.316;8.670;2022-12-07T05:48:38;3.20;92.50
46816;DHT22;32787;53.316;8.670;2022-12-07T05:51:24;3.20;92.50
46816;DHT22;32787;53.316;8.670;2022-12-07T05:54:10;3.10;92.40
46816;DHT22;32787;53.316;8.670;2022-12-07T05:56:56;3.00;92.20
46816;DHT22;32787;53.316;8.670;2022-12-07T05:59:42;3.10;92.70
46816;DHT22;32787;53.316;8.670;2022-12-07T06:02:28;2.90;92.70
46816;DHT22;32787;53.316;8.670;2022-12-07T06:05:14;3.10;93.20
46816;DHT22;32787;53.316;8.670;2022-12-07T06:08:00;3.00;93.10
46816;DHT22;32787;53.316;8.670;2022-12-07T06:10:47;3.00;93.10
46816;DHT22;32787;53.316;8.670;2022-12-07T06:13:53;3.10;93.00
46816;DHT22;32787;53.316;8.670;2022-12-07T06:16:39;3.10;92.90
46816;DHT22;32787;53.316;8.670;2022-12-07T06:19:25;3.10;92.90
46816;DHT22;32787;53.316;8.670;2022-12-07T06:22:11;3.10;92.70
46816;DHT22;32787;53.316;8.670;2022-12-07T06:24:57;3.00;92.70
46816;DHT22;32787;53.316;8.670;2022-12-07T06:27:43;2.90;92.90
46816;DHT22;32787;53.316;8.670;2022-12-07T06:30:29;2.90;93.10
46816;DHT22;32787;53.316;8.670;2022-12-07T06:33:15;2.90;93.10
46816;DHT22;32787;53.316;8.670;2022-12-07T06:36:01;2.80;93.20
46816;DHT22;32787;53.316;8.670;2022-12-07T06:38:46;2.80;93.20
46816;DHT22;32787;53.316;8.670;2022-12-07T06:41:32;2.80;93.30
46816;DHT22;32787;53.316;8.670;2022-12-07T06:44:19;2.90;93.30
46816;DHT22;32787;53.316;8.670;2022-12-07T06:47:05;2.80;93.20
46816;DHT22;32787;53.316;8.670;2022-12-07T06:49:53;2.90;93.20
46816;DHT22;32787;53.316;8.670;2022-12-07T06:52:39;3.00;93.30
46816;DHT22;32787;53.316;8.670;2022-12-07T06:55:25;3.00;93.30
46816;DHT22;32787;53.316;8.670;2022-12-07T06:58:11;3.10;93.20
46816;DHT22;32787;53.316;8.670;2022-12-07T07:00:57;3.10;93.00
46816;DHT22;32787;53.316;8.670;2022-12-07T07:03:43;3.10;92.80
46816;DHT22;32787;53.316;8.670;2022-12-07T07:06:29;2.90;92.60
46816;DHT22;32787;53.316;8.670;2022-12-07T07:09:15;2.80;92.50
46816;DHT22;32787;53.316;8.670;2022-12-07T07:12:01;2.90;92.80
46816;DHT22;32787;53.316;8.670;2022-12-07T07:14:47;2.90;93.00
46816;DHT22;32787;53.316;8.670;2022-12-07T07:17:33;3.00;92.90
46816;DHT22;32787;53.316;8.670;2022-12-07T07:20:19;2.90;92.90
46816;DHT22;32787;53.316;8.670;2022-12-07T07:23:05;2.90;92.70
46816;DHT22;32787;53.316;8.670;2022-12-07T07:25:51;2.90;92.60
46816;DHT22;32787;53.316;8.670;2022-12-07T07:28:37;2.80;92.60
46816;DHT22;32787;53.316;8.670;2022-12-07T07:31:23;2.70;92.50
46816;DHT22;32787;53.316;8.670;2022-12-07T07:34:09;2.70;92.70
46816;DHT22;32787;53.316;8.670;2022-12-07T07:36:55;2.60;92.60
46816;DHT22;32787;53.316;8.670;2022-12-07T07:39:41;2.60;92.70
46816;DHT22;32787;53.316;8.670;2022-12-07T07:42:27;2.40;92.70
46816;DHT22;32787;53.316;8.670;2022-12-07T07:45:13;2.30;92.90
46816;DHT22;32787;53.316;8.670;2022-12-07T07:47:59;2.50;93.10
46816;DHT22;32787;53.316;8.670;2022-12-07T07:50:45;2.60;93.20
46816;DHT22;32787;53.316;8.670;2022-12-07T07:53:30;2.50;92.90
46816;DHT22;32787;53.316;8.670;2022-12-07T07:56:17;2.60;93.00
46816;DHT22;32787;53.316;8.670;2022-12-07T07:59:03;2.60;92.80
46816;DHT22;32787;53.316;8.670;2022-12-07T08:01:48;2.40;92.70
46816;DHT22;32787;53.316;8.670;2022-12-07T08:04:35;2.50;92.80
46816;DHT22;32787;53.316;8.670;2022-12-07T08:07:21;2.50;92.90
46816;DHT22;32787;53.316;8.670;2022-12-07T08:10:10;2.50;93.00
46816;DHT22;32787;53.316;8.670;2022-12-07T08:12:56;2.50;92.90
46816;DHT22;32787;53.316;8.670;2022-12-07T08:16:03;2.60;92.80
46816;DHT22;32787;53.316;8.670;2022-12-07T08:18:49;2.60;92.70
46816;DHT22;32787;53.316;8.670;2022-12-07T08:21:35;2.60;92.80
46816;DHT22;32787;53.316;8.670;2022-12-07T08:24:23;2.70;92.80
46816;DHT22;32787;53.316;8.670;2022-12-07T08:27:10;2.70;92.70
46816;DHT22;32787;53.316;8.670;2022-12-07T08:29:56;2.70;92.60
46816;DHT22;32787;53.316;8.670;2022-12-07T08:32:44;2.70;92.60
46816;DHT22;32787;53.316;8.670;2022-12-07T08:35:33;2.70;92.90
46816;DHT22;32787;53.316;8.670;2022-12-07T08:38:19;2.90;92.90
46816;DHT22;32787;53.316;8.670;2022-12-07T08:41:06;2.90;92.80
46816;DHT22;32787;53.316;8.670;2022-12-07T08:43:52;2.90;92.80
46816;DHT22;32787;53.316;8.670;2022-12-07T08:47:00;3.10;92.80
46816;DHT22;32787;53.316;8.670;2022-12-07T08:49:48;3.20;92.80
46816;DHT22;32787;53.316;8.670;2022-12-07T08:52:36;3.30;92.60
46816;DHT22;32787;53.316;8.670;2022-12-07T08:55:23;3.30;92.60
46816;DHT22;32787;53.316;8.670;2022-12-07T08:58:09;3.40;92.50
46816;DHT22;32787;53.316;8.670;2022-12-07T09:00:55;3.40;92.50
46816;DHT22;32787;53.316;8.670;2022-12-07T09:03:41;3.40;92.40
46816;DHT22;32787;53.316;8.670;2022-12-07T09:06:27;3.50;92.60
46816;DHT22;32787;53.316;8.670;2022-12-07T09:09:14;3.60;92.40
46816;DHT22;32787;53.316;8.670;2022-12-07T09:12:00;3.60;92.40
46816;DHT22;32787;53.316;8.670;2022-12-07T09:14:46;3.60;92.30
46816;DHT22;32787;53.316;8.670;2022-12-07T09:17:33;3.50;92.10
46816;DHT22;32787;53.316;8.670;2022-12-07T09:20:19;3.40;92.10
46816;DHT22;32787;53.316;8.670;2022-12-07T09:23:06;3.50;92.40
46816;DHT22;32787;53.316;8.670;2022-12-07T09:25:52;3.40;92.10
46816;DHT22;32787;53.316;8.670;2022-12-07T09:28:38;3.50;92.30
46816;DHT22;32787;53.316;8.670;2022-12-07T09:31:25;3.60;92.20
46816;DHT22;32787;53.316;8.670;2022-12-07T09:34:11;3.60;92.00
46816;DHT22;32787;53.316;8.670;2022-12-07T09:36:58;3.60;92.00
46816;DHT22;32787;53.316;8.670;2022-12-07T09:39:44;3.70;92.10
46816;DHT22;32787;53.316;8.670;2022-12-07T09:44:50;4.20;92.30
46816;DHT22;32787;53.316;8.670;2022-12-07T09:47:16;4.10;91.90
46816;DHT22;32787;53.316;8.670;2022-12-07T09:49:41;4.10;91.90
46816;DHT22;32787;53.316;8.670;2022-12-07T09:54:35;4.20;91.50
46816;DHT22;32787;53.316;8.670;2022-12-07T09:57:02;4.30;91.50
46816;DHT22;32787;53.316;8.670;2022-12-07T09:59:27;4.10;91.40
46816;DHT22;32787;53.316;8.670;2022-12-07T10:01:54;4.30;91.50
46816;DHT22;32787;53.316;8.670;2022-12-07T10:04:24;4.30;91.10
46816;DHT22;32787;53.316;8.670;2022-12-07T10:06:50;4.50;91.30
46816;DHT22;32787;53.316;8.670;2022-12-07T10:09:35;4.40;91.10
46816;DHT22;32787;53.316;8.670;2022-12-07T10:12:21;4.50;91.30
46816;DHT22;32787;53.316;8.670;2022-12-07T10:15:07;4.60;91.30
46816;DHT22;32787;53.316;8.670;2022-12-07T10:17:53;4.50;91.20
46816;DHT22;32787;53.316;8.670;2022-12-07T10:20:39;4.50;91.40
46816;DHT22;32787;53.316;8.670;2022-12-07T10:23:25;4.40;91.00
46816;DHT22;32787;53.316;8.670;2022-12-07T10:35:21;4.90;91.60
46816;DHT22;32787;53.316;8.670;2022-12-07T10:38:16;4.80;91.10
46816;DHT22;32787;53.316;8.670;2022-12-07T10:41:04;4.70;90.90
46816;DHT22;32787;53.316;8.670;2022-12-07T10:43:53;4.60;90.80
46816;DHT22;32787;53.316;8.670;2022-12-07T10:46:50;4.60;91.00
46816;DHT22;32787;53.316;8.670;2022-12-07T10:52:46;4.50;90.80
46816;DHT22;32787;53.316;8.670;2022-12-07T11:11:09;4.30;90.90
46816;DHT22;32787;53.316;8.670;2022-12-07T11:26:06;4.60;90.30
46816;DHT22;32787;53.316;8.670;2022-12-07T11:29:18;4.50;90.20
46816;DHT22;32787;53.316;8.670;2022-12-07T11:41:40;4.30;90.00
46816;DHT22;32787;53.316;8.670;2022-12-07T11:44:39;4.10;89.90
46816;DHT22;32787;53.316;8.670;2022-12-07T11:50:57;3.90;90.30
46816;DHT22;32787;53.316;8.670;2022-12-07T11:53:52;3.90;90.50
46816;DHT22;32787;53.316;8.670;2022-12-07T11:56:40;3.90;90.60
46816;DHT22;32787;53.316;8.670;2022-12-07T11:59:48;3.90;90.60
46816;DHT22;32787;53.316;8.670;2022-12-07T12:05:34;3.80;90.70
46816;DHT22;32787;53.316;8.670;2022-12-07T12:08:35;3.60;90.90
46816;DHT22;32787;53.316;8.670;2022-12-07T12:20:55;3.00;92.40
46816;DHT22;32787;53.316;8.670;2022-12-07T12:23:48;3.10;92.80
46816;DHT22;32787;53.316;8.670;2022-12-07T12:26:37;3.20;92.80
46816;DHT22;32787;53.316;8.670;2022-12-07T12:29:41;3.20;92.80
46816;DHT22;32787;53.316;8.670;2022-12-07T12:32:40;3.30;93.00
46816;DHT22;32787;53.316;8.670;2022-12-07T12:35:35;3.30;93.10
46816;DHT22;32787;53.316;8.670;2022-12-07T12:38:29;3.30;93.10
46816;DHT22;32787;53.316;8.670;2022-12-07T12:45:11;3.30;93.40
46816;DHT22;32787;53.316;8.670;2022-12-07T12:48:30;3.40;93.40
46816;DHT22;32787;53.316;8.670;2022-12-07T12:51:39;3.70;93.60
46816;DHT22;32787;53.316;8.670;2022-12-07T12:54:32;3.70;92.90
46816;DHT22;32787;53.316;8.670;2022-12-07T12:57:24;3.90;92.80
46816;DHT22;32787;53.316;8.670;2022-12-07T13:00:16;3.80;92.70
46816;DHT22;32787;53.316;8.670;2022-12-07T13:03:02;3.90;92.50
46816;DHT22;32787;53.316;8.670;2022-12-07T13:06:32;3.90;92.10
46816;DHT22;32787;53.316;8.670;2022-12-07T13:09:21;3.90;91.80
46816;DHT22;32787;53.316;8.670;2022-12-07T13:12:16;3.70;91.80
46816;DHT22;32787;53.316;8.670;2022-12-07T13:15:31;3.70;91.90
46816;DHT22;32787;53.316;8.670;2022-12-07T13:24:08;3.80;91.70
46816;DHT22;32787;53.316;8.670;2022-12-07T13:26:36;3.70;92.00
46816;DHT22;32787;53.316;8.670;2022-12-07T13:29:16;3.90;92.20
46816;DHT22;32787;53.316;8.670;2022-12-07T13:31:48;3.90;92.20
46816;DHT22;32787;53.316;8.670;2022-12-07T13:37:30;4.00;92.80
46816;DHT22;32787;53.316;8.670;2022-12-07T13:40:14;3.90;91.70
46816;DHT22;32787;53.316;8.670;2022-12-07T13:42:43;3.80;91.30
46816;DHT22;32787;53.316;8.670;2022-12-07T13:45:27;3.80;91.10
46816;DHT22;32787;53.316;8.670;2022-12-07T13:50:57;3.60;91.20
46816;DHT22;32787;53.316;8.670;2022-12-07T13:53:23;3.50;91.30
46816;DHT22;32787;53.316;8.670;2022-12-07T13:55:49;3.20;91.30
46816;DHT22;32787;53.316;8.670;2022-12-07T13:58:16;3.10;91.50
46816;DHT22;32787;53.316;8.670;2022-12-07T14:00:42;3.10;91.50
46816;DHT22;32787;53.316;8.670;2022-12-07T14:05:43;2.90;92.20
46816;DHT22;32787;53.316;8.670;2022-12-07T14:13:28;2.80;92.20
46816;DHT22;32787;53.316;8.670;2022-12-07T14:15:52;2.60;92.30
46816;DHT22;32787;53.316;8.670;2022-12-07T14:18:29;2.50;92.60
46816;DHT22;32787;53.316;8.670;2022-12-07T14:23:40;2.30;92.90
46816;DHT22;32787;53.316;8.670;2022-12-07T14:26:19;2.20;93.10
46816;DHT22;32787;53.316;8.670;2022-12-07T14:28:45;2.10;93.30
46816;DHT22;32787;53.316;8.670;2022-12-07T14:31:15;2.20;93.50
46816;DHT22;32787;53.316;8.670;2022-12-07T14:33:41;2.20;93.30
46816;DHT22;32787;53.316;8.670;2022-12-07T14:36:14;2.20;93.50
46816;DHT22;32787;53.316;8.670;2022-12-07T14:38:40;2.30;93.50
46816;DHT22;32787;53.316;8.670;2022-12-07T14:41:12;2.20;93.40
46816;DHT22;32787;53.316;8.670;2022-12-07T14:43:58;2.10;93.40
46816;DHT22;32787;53.316;8.670;2022-12-07T14:46:24;1.90;93.40
46816;DHT22;32787;53.316;8.670;2022-12-07T14:48:49;1.80;93.40
46816;DHT22;32787;53.316;8.670;2022-12-07T14:51:15;1.70;93.60
46816;DHT22;32787;53.316;8.670;2022-12-07T14:53:48;1.80;93.70
46816;DHT22;32787;53.316;8.670;2022-12-07T14:56:14;1.90;93.70
46816;DHT22;32787;53.316;8.670;2022-12-07T14:58:40;1.90;93.70
46816;DHT22;32787;53.316;8.670;2022-12-07T15:01:06;1.80;93.70
46816;DHT22;32787;53.316;8.670;2022-12-07T15:03:32;1.70;93.60
46816;DHT22;32787;53.316;8.670;2022-12-07T15:06:00;1.70;93.60
46816;DHT22;32787;53.316;8.670;2022-12-07T15:08:26;1.60;93.70
46816;DHT22;32787;53.316;8.670;2022-12-07T15:10:52;1.50;93.70
46816;DHT22;32787;53.316;8.670;2022-12-07T15:13:17;1.50;93.60
46816;DHT22;32787;53.316;8.670;2022-12-07T15:16:02;1.50;93.70
46816;DHT22;32787;53.316;8.670;2022-12-07T15:18:28;1.30;93.80
46816;DHT22;32787;53.316;8.670;2022-12-07T15:20:53;1.40;93.90
46816;DHT22;32787;53.316;8.670;2022-12-07T15:23:19;1.40;93.80
46816;DHT22;32787;53.316;8.670;2022-12-07T15:25:47;1.40;94.00
46816;DHT22;32787;53.316;8.670;2022-12-07T15:28:13;1.40;94.00
46816;DHT22;32787;53.316;8.670;2022-12-07T15:30:40;1.40;94.00
46816;DHT22;32787;53.316;8.670;2022-12-07T15:33:08;1.40;94.00
46816;DHT22;32787;53.316;8.670;2022-12-07T15:35:33;1.50;94.10
46816;DHT22;32787;53.316;8.670;2022-12-07T15:37:59;1.60;94.10
46816;DHT22;32787;53.316;8.670;2022-12-07T15:40:24;1.50;94.10
46816;DHT22;32787;53.316;8.670;2022-12-07T15:42:50;1.60;94.20
46816;DHT22;32787;53.316;8.670;2022-12-07T15:45:15;1.70;94.20
46816;DHT22;32787;53.316;8.670;2022-12-07T15:47:43;1.70;94.30
46816;DHT22;32787;53.316;8.670;2022-12-07T15:50:12;1.90;94.40
46816;DHT22;32787;53.316;8.670;2022-12-07T15:52:38;2.10;94.40
46816;DHT22;32787;53.316;8.670;2022-12-07T15:55:04;2.20;94.20
46816;DHT22;32787;53.316;8.670;2022-12-07T15:57:31;2.10;94.00
46816;DHT22;32787;53.316;8.670;2022-12-07T15:59:57;2.10;94.00
46816;DHT22;32787;53.316;8.670;2022-12-07T16:02:23;2.10;94.00
46816;DHT22;32787;53.316;8.670;2022-12-07T16:04:49;2.10;94.00
46816;DHT22;32787;53.316;8.670;2022-12-07T16:07:15;2.20;93.80
46816;DHT22;32787;53.316;8.670;2022-12-07T16:09:42;2.20;93.80
46816;DHT22;32787;53.316;8.670;2022-12-07T16:14:36;2.10;93.70
46816;DHT22;32787;53.316;8.670;2022-12-07T16:17:02;2.00;93.70
46816;DHT22;32787;53.316;8.670;2022-12-07T16:19:30;2.10;93.80
46816;DHT22;32787;53.316;8.670;2022-12-07T16:21:55;2.10;93.90
46816;DHT22;32787;53.316;8.670;2022-12-07T16:24:21;2.10;93.80
46816;DHT22;32787;53.316;8.670;2022-12-07T16:26:47;2.00;93.90
46816;DHT22;32787;53.316;8.670;2022-12-07T16:29:14;2.10;94.00
46816;DHT22;32787;53.316;8.670;2022-12-07T16:31:40;2.20;94.10
46816;DHT22;32787;53.316;8.670;2022-12-07T16:34:06;2.10;93.90
46816;DHT22;32787;53.316;8.670;2022-12-07T16:36:32;2.00;93.90
46816;DHT22;32787;53.316;8.670;2022-12-07T16:39:00;2.00;94.00
46816;DHT22;32787;53.316;8.670;2022-12-07T16:41:26;2.10;94.10
46816;DHT22;32787;53.316;8.670;2022-12-07T16:43:52;2.00;94.00
46816;DHT22;32787;53.316;8.670;2022-12-07T16:46:17;1.90;94.00
46816;DHT22;32787;53.316;8.670;2022-12-07T16:48:43;2.00;94.10
46816;DHT22;32787;53.316;8.670;2022-12-07T16:51:11;1.90;93.90
46816;DHT22;32787;53.316;8.670;2022-12-07T16:53:38;1.70;93.90
46816;DHT22;32787;53.316;8.670;2022-12-07T16:56:10;1.70;94.00
46816;DHT22;32787;53.316;8.670;2022-12-07T16:58:36;1.70;93.90
46816;DHT22;32787;53.316;8.670;2022-12-07T17:01:19;1.80;94.10
46816;DHT22;32787;53.316;8.670;2022-12-07T17:03:45;1.90;94.00
46816;DHT22;32787;53.316;8.670;2022-12-07T17:08:38;1.60;93.90
46816;DHT22;32787;53.316;8.670;2022-12-07T17:11:16;1.40;93.90
46816;DHT22;32787;53.316;8.670;2022-12-07T17:13:42;1.20;93.80
46816;DHT22;32787;53.316;8.670;2022-12-07T17:16:27;1.10;93.80
46816;DHT22;32787;53.316;8.670;2022-12-07T17:18:53;1.20;93.70
46816;DHT22;32787;53.316;8.670;2022-12-07T17:21:19;1.10;93.90
46816;DHT22;32787;53.316;8.670;2022-12-07T17:23:45;1.20;93.80
46816;DHT22;32787;53.316;8.670;2022-12-07T17:26:16;1.10;93.80
46816;DHT22;32787;53.316;8.670;2022-12-07T17:28:43;0.90;93.70
46816;DHT22;32787;53.316;8.670;2022-12-07T17:31:10;0.90;93.80
46816;DHT22;32787;53.316;8.670;2022-12-07T17:33:36;0.90;93.90
46816;DHT22;32787;53.316;8.670;2022-12-07T17:36:14;0.90;94.00
46816;DHT22;32787;53.316;8.670;2022-12-07T17:38:40;1.00;94.10
46816;DHT22;32787;53.316;8.670;2022-12-07T17:41:10;1.10;94.10
46816;DHT22;32787;53.316;8.670;2022-12-07T17:43:36;1.10;94.00
46816;DHT22;32787;53.316;8.670;2022-12-07T17:46:07;1.00;94.00
46816;DHT22;32787;53.316;8.670;2022-12-07T17:48:33;0.90;93.90
46816;DHT22;32787;53.316;8.670;2022-12-07T17:51:02;0.80;94.00
46816;DHT22;32787;53.316;8.670;2022-12-07T17:53:49;0.80;94.10
46816;DHT22;32787;53.316;8.670;2022-12-07T17:56:16;0.90;94.20
46816;DHT22;32787;53.316;8.670;2022-12-07T17:58:41;1.20;94.20
46816;DHT22;32787;53.316;8.670;2022-12-07T18:01:08;1.30;94.20
46816;DHT22;32787;53.316;8.670;2022-12-07T18:03:34;1.20;94.00
46816;DHT22;32787;53.316;8.670;2022-12-07T18:06:00;1.10;93.90
46816;DHT22;32787;53.316;8.670;2022-12-07T18:08:26;1.00;93.90
46816;DHT22;32787;53.316;8.670;2022-12-07T18:10:58;0.90;94.00
46816;DHT22;32787;53.316;8.670;2022-12-07T18:13:23;1.00;94.20
46816;DHT22;32787;53.316;8.670;2022-12-07T18:16:05;1.20;94.10
46816;DHT22;32787;53.316;8.670;2022-12-07T18:18:31;1.20;94.10
46816;DHT22;32787;53.316;8.670;2022-12-07T18:20:56;1.20;94.20
46816;DHT22;32787;53.316;8.670;2022-12-07T18:23:22;1.20;94.20
46816;DHT22;32787;53.316;8.670;2022-12-07T18:25:50;1.40;94.30
46816;DHT22;32787;53.316;8.670;2022-12-07T18:28:16;1.60;94.30
46816;DHT22;32787;53.316;8.670;2022-12-07T18:30:42;1.80;94.20
46816;DHT22;32787;53.316;8.670;2022-12-07T18:33:18;1.90;94.00
46816;DHT22;32787;53.316;8.670;2022-12-07T18:35:46;2.00;93.60
46816;DHT22;32787;53.316;8.670;2022-12-07T18:38:15;1.90;93.30
46816;DHT22;32787;53.316;8.670;2022-12-07T18:40:41;1.90;93.10
46816;DHT22;32787;53.316;8.670;2022-12-07T18:43:08;2.00;93.00
46816;DHT22;32787;53.316;8.670;2022-12-07T18:45:38;1.90;93.00
46816;DHT22;32787;53.316;8.670;2022-12-07T18:48:04;1.70;93.10
46816;DHT22;32787;53.316;8.670;2022-12-07T18:50:30;1.70;93.30
46816;DHT22;32787;53.316;8.670;2022-12-07T18:52:57;1.70;93.40
46816;DHT22;32787;53.316;8.670;2022-12-07T18:55:24;1.70;93.50
46816;DHT22;32787;53.316;8.670;2022-12-07T18:57:51;1.90;93.50
46816;DHT22;32787;53.316;8.670;2022-12-07T19:00:17;1.90;93.50
46816;DHT22;32787;53.316;8.670;2022-12-07T19:02:43;1.90;93.50
46816;DHT22;32787;53.316;8.670;2022-12-07T19:05:09;1.80;93.40
46816;DHT22;32787;53.316;8.670;2022-12-07T19:07:34;1.80;93.50
46816;DHT22;32787;53.316;8.670;2022-12-07T19:10:00;1.80;93.40
46816;DHT22;32787;53.316;8.670;2022-12-07T19:12:26;1.80;93.50
46816;DHT22;32787;53.316;8.670;2022-12-07T19:14:51;1.80;93.50
46816;DHT22;32787;53.316;8.670;2022-12-07T19:17:19;1.90;93.60